AirNav   Everest Fuels
 
 297 users online  

KRED Red Lodge Airport
Red Lodge, Montana, USA

GOING TO RED LODGE?


FAA INFORMATION EFFECTIVE 25 FEBRUARY 2021

Location

FAA Identifier: RED
Lat/Long: 45-11-05.4000N 109-15-27.7550W
45-11.090000N 109-15.462583W
45.1848333,-109.2577097
(estimated)
Elevation: 5762 ft. / 1756.3 m (surveyed)
Variation: 15E (1985)
From city: 1 mile NW of RED LODGE, MT
Time zone: UTC -7 (UTC -6 during Daylight Saving Time)
Zip code: 59068

Airport Operations

Airport use: Open to the public
Activation date: 04/1940
Control tower: no
ARTCC: SALT LAKE CITY CENTER
FSS: GREAT FALLS FLIGHT SERVICE STATION
NOTAMs facility: GTF (NOTAM-D service available)
Attendance: UNATNDD
Wind indicator: lighted
Segmented circle: yes
Lights: ACTVT MIRL RY 16/34 & VASI RY 16 - CTAF.
Beacon: white-green (lighted land airport)
Operates sunset to sunrise.

Airport Communications

CTAF: 122.9

Nearby radio navigation aids

VOR radial/distance  VOR name  Freq  Var
CODr326/36.1CODY VOR/DME111.8014E

 
NDB name  Hdg/Dist  Freq  Var  ID
POWELL303/27.634411EPOY .--. --- -.--
COWLEY284/38.225711EHCY .... -.-. -.--

Airport Services

Fuel available: 100LL
Parking: tiedowns
Bottled oxygen: NONE
Bulk oxygen: NONE

Runway Information

Runway 16/34

Dimensions: 4000 x 75 ft. / 1219 x 23 m
Surface: asphalt, in good condition
Weight bearing capacity: 
Single wheel: 4.0
Double wheel: 6.0
Runway edge lights: medium intensity
RUNWAY 16  RUNWAY 34
Latitude: 45-11.418667N45-10.761333N
Longitude: 109-15.484500W109-15.440667W
Elevation: 5696.8 ft.5762.0 ft.
Traffic pattern: leftleft
Runway heading: 162 magnetic, 177 true342 magnetic, 357 true
Markings: basic, in good conditionbasic, in good condition
Visual slope indicator: 2-box VASI on left (3.00 degrees glide path)
Touchdown point: yes, no lightsyes, no lights
Obstructions: 15 ft. road, 490 ft. from runway, 19:1 slope to clear10 ft. road, 288 ft. from runway, 8:1 slope to clear
+10 FT RD 115 FT R; +4 FT FENCE 111 FT R; BOTH CROSS EXTNDD RY CNTRLN 288 FT FM THR. ALSO STEEP TERRAIN DROPOFF TO -400 FT APROXLY 127 FT R.

Airport Ownership and Management from official FAA records

Ownership: Publicly-owned
Owner: CITY OF RED LODGE- CARBON CO
P.O. BOX 887
RED LODGE, MT 59068
Phone 406-446-1595
Manager: JIM CHITTICK
PO BOX 1053
RED LODGE, MT 59068
Phone (252) 259-5624

Airport Operational Statistics

Aircraft based on the field: 11
Single engine airplanes: 11
    
Aircraft operations: avg 114/week *
62% local general aviation
34% transient general aviation
3% air taxi
<1% military
* for 12-month period ending 20 July 2019

Additional Remarks

WILDLIFE ON & INVOF ARPT.
DIGIWX WX - 2 CLICKS ON 122.725.
FOR CD CTC SALT LAKE ARTCC AT 801-320-2568.

Instrument Procedures

There are no published instrument procedures at KRED.

Some nearby airports with instrument procedures:

KPOY - Powell Municipal Airport (27 nm SE)
6S8 - Laurel Municipal Airport (38 nm NE)
U68 - North Big Horn County Airport (38 nm SE)
KCOD - Yellowstone Regional Airport (41 nm S)
KBIL - Billings Logan International Airport (48 nm NE)
 
Loc | Ops | Rwys | IFR | FBO | Links
Com | Nav | Svcs | Stats | Notes
Area around KRED (Red Lodge Airport)
 
Road maps at: MapQuest Bing Google
 
Aerial photo
WARNING: Photo may not be current or correct
Aerial photo of KRED (Red Lodge Airport)
Photo by Maria Guy
Photo taken 10-Oct-2010
looking north east.

Do you have a better or more recent aerial photo of Red Lodge Airport that you would like to share? If so, please send us your photo.

 
Sectional chart

 
Airport distance calculator
Flying to Red Lodge Airport? Find the distance to fly.

From to KRED

Sunrise and sunset
Times for 06-Mar-2021
 Local
(UTC-7)
 Zulu
(UTC)
Morning civil twilight06:1813:18
Sunrise06:4713:47
Sunset18:1001:10
Evening civil twilight18:3901:39

Current date and time
Zulu (UTC)  06-Mar-2021 09:16:40
Local (UTC-7)  06-Mar-2021 02:16:40
 
METAR
KPOY 
27nm SE 
060855Z AUTO 12008KT 10SM CLR 01/M06 A3002 RMK AO2
K6S8 
38nm NE 
060855Z AUTO 24011KT 10SM 03/M04 A2996 RMK A01 Laurel
KU68 
38nm SE 
060855Z AUTO 03003KT 10SM CLR 01/M04 A3005 RMK AO2
KCOD 
41nm S 
060856Z AUTO 22013KT 10SM CLR 03/M10 A3003 RMK AO2 SLP170 T00281100 57017
KBIL 
47nm NE 
060853Z 00000KT 10SM CLR 02/M06 A2996 RMK AO2 SLP148 T00221061 56014
K6S0 
48nm NW 
060855Z AUTO 26012KT 10SM CLR 07/M10 A2997 RMK A01
TAF
NOTAMs
Click for the latest NOTAMs
NOTAMs are issued by the DoD/FAA and will open in a separate window not controlled by AirNav.

 

 
 

FBO, Fuel Providers, and Aircraft Ground Support

  
 Business Name 
 
 Contact 
 
 Services / Description 
 
Fuel Prices
 
Comments
  
Ray Judd Petroleum 406-446-1332
no information available

If you are affiliated with Ray Judd Petroleum and would like to show here your services, contact info, web link, logo, and more, click here
100LL
PS $5.20 
 Updated 25-Feb-2021
 
   write
PS=Pump service
Update Fuel Prices
 

Would you like to see your business listed on this page?

 If your business provides an interesting product or service to pilots, flight crews, aircraft, or users of the Red Lodge Airport, you should consider listing it here.  To start the listing process, click on the button below
 
Add a business
 

Other Pages about Red Lodge Airport

Update a link
 
Copyright © AirNav, LLC. All rights reserved. Privacy Policy  Contact